createdAt,value
2019-05-21T00:05:49.565Z,42.47
2019-05-21T00:11:55.348Z,43.30
2019-05-21T00:18:01.160Z,40.00
2019-05-21T00:24:07.161Z,35.87
2019-05-21T00:31:07.027Z,32.37
2019-05-21T00:38:06.608Z,30.57
2019-05-21T00:44:12.391Z,34.97
2019-05-21T00:50:19.419Z,38.53
2019-05-21T00:56:25.335Z,40.43
2019-05-21T01:02:31.295Z,34.40
2019-05-21T01:08:37.105Z,29.23
2019-05-21T01:14:42.877Z,27.40
2019-05-21T01:20:48.646Z,33.17
2019-05-21T01:26:54.397Z,33.03
2019-05-21T01:33:00.173Z,32.03
2019-05-21T01:39:07.304Z,32.50
2019-05-21T01:45:13.530Z,30.93
2019-05-21T01:51:20.242Z,28.40
2019-05-21T01:57:25.964Z,28.77
2019-05-21T02:03:31.706Z,31.60
2019-05-21T02:09:56.305Z,31.17
2019-05-21T02:16:02.566Z,35.20
2019-05-21T02:22:08.472Z,38.17
2019-05-21T02:28:14.458Z,35.43
2019-05-21T02:34:20.266Z,41.60
2019-05-21T02:40:26.830Z,48.10
2019-05-21T02:46:33.096Z,55.30
2019-05-21T02:52:39.013Z,52.50
2019-05-21T02:58:44.766Z,57.57
2019-05-21T03:04:50.510Z,40.03
2019-05-21T03:10:56.510Z,57.40
2019-05-21T03:17:02.270Z,85.70
2019-05-21T03:23:08.291Z,93.83
2019-05-21T03:29:14.318Z,94.40
2019-05-21T03:35:20.242Z,110.63
2019-05-21T03:41:26.441Z,109.37
2019-05-21T03:47:32.158Z,118.67
2019-05-21T03:53:38.858Z,115.67
2019-05-21T03:59:44.750Z,128.57
2019-05-21T04:05:50.759Z,137.70
2019-05-21T04:11:56.543Z,105.90
2019-05-21T04:18:07.885Z,101.97
2019-05-21T04:24:15.887Z,116.07
2019-05-21T04:30:21.633Z,122.07
2019-05-21T04:36:27.628Z,101.07
2019-05-21T04:42:33.543Z,90.43
2019-05-21T04:48:39.475Z,93.43
2019-05-21T04:54:45.495Z,85.77
2019-05-21T05:00:51.232Z,75.23
2019-05-21T05:06:57.037Z,68.67
2019-05-21T05:13:02.811Z,69.83
2019-05-21T05:19:08.550Z,70.57
2019-05-21T05:25:15.421Z,69.13
2019-05-21T05:31:21.552Z,70.17
2019-05-21T05:37:42.564Z,79.60
2019-05-21T05:43:35.268Z,77.13
2019-05-21T05:49:45.148Z,82.40
2019-05-21T05:55:50.886Z,78.63
2019-05-21T06:01:56.706Z,74.73
2019-05-21T06:08:02.763Z,73.27
2019-05-21T06:14:08.949Z,73.63
2019-05-21T06:20:15.681Z,58.83
2019-05-21T06:26:21.797Z,59.80
2019-05-21T06:32:27.765Z,57.77
2019-05-21T06:38:33.790Z,54.37
2019-05-21T06:44:41.445Z,60.73
2019-05-21T06:50:47.192Z,57.20
2019-05-21T06:56:53.005Z,68.80
2019-05-21T07:02:58.843Z,64.77
2019-05-21T07:09:05.886Z,60.30
2019-05-21T07:15:12.167Z,56.20
2019-05-21T07:21:18.848Z,58.80
2019-05-21T07:27:24.755Z,62.90
2019-05-21T07:33:30.531Z,66.30
2019-05-21T07:39:37.182Z,59.17
2019-05-21T07:45:43.035Z,58.47
2019-05-21T07:51:49.344Z,61.33
2019-05-21T07:57:55.215Z,56.90
2019-05-21T08:04:01.255Z,46.03
2019-05-21T08:10:08.536Z,49.80
2019-05-21T08:16:14.557Z,44.37
2019-05-21T08:22:20.414Z,60.33
2019-05-21T08:28:26.204Z,68.37
2019-05-21T08:34:32.015Z,65.83
2019-05-21T08:40:39.477Z,55.83
2019-05-21T08:46:45.620Z,60.13
2019-05-21T08:52:51.776Z,52.63
2019-05-21T08:58:57.676Z,49.80
2019-05-21T09:05:03.568Z,46.23
2019-05-21T09:11:09.815Z,49.00
2019-05-21T09:17:15.561Z,41.60
2019-05-21T09:23:21.372Z,46.73
2019-05-21T09:29:27.165Z,46.10
2019-05-21T09:35:32.884Z,43.77
2019-05-21T09:41:40.475Z,41.73
2019-05-21T09:47:46.380Z,43.63
2019-05-21T09:53:52.180Z,45.73
2019-05-21T10:00:06.551Z,44.70
2019-05-21T10:06:12.288Z,41.37
2019-05-21T10:12:18.398Z,43.33
2019-05-21T10:18:24.272Z,46.33
2019-05-21T10:24:30.604Z,42.37
2019-05-21T10:30:37.231Z,50.67
2019-05-21T10:36:43.142Z,46.37
2019-05-21T10:42:48.878Z,46.63
2019-05-21T10:48:54.670Z,50.70
2019-05-21T10:55:00.594Z,41.47
2019-05-21T11:01:25.721Z,49.13
2019-05-21T11:07:31.816Z,45.80
2019-05-21T11:13:37.934Z,41.80
2019-05-21T11:19:43.916Z,44.23
2019-05-21T11:25:50.137Z,43.57
2019-05-21T11:31:57.648Z,42.80
2019-05-21T11:38:07.007Z,40.53
2019-05-21T11:44:13.129Z,40.77
2019-05-21T11:50:19.832Z,38.90
2019-05-21T11:56:25.997Z,42.63
2019-05-21T12:02:31.936Z,33.00
2019-05-21T12:08:37.830Z,37.90
2019-05-21T12:14:43.881Z,35.33
2019-05-21T12:20:49.692Z,31.27
2019-05-21T12:26:55.486Z,34.07
2019-05-21T12:33:01.497Z,36.07
2019-05-21T12:39:14.271Z,34.93
2019-05-21T12:45:17.639Z,37.33
2019-05-21T12:51:24.613Z,33.30
2019-05-21T12:57:30.405Z,36.77
2019-05-21T13:03:36.947Z,34.67
2019-05-21T13:09:42.839Z,34.63
2019-05-21T13:15:49.016Z,36.70
2019-05-21T13:21:54.979Z,34.20
2019-05-21T13:28:00.976Z,34.37
2019-05-21T13:34:07.230Z,37.00
2019-05-21T13:40:13.580Z,30.20
2019-05-21T13:46:19.573Z,23.37
2019-05-21T13:52:25.787Z,29.13
2019-05-21T13:58:32.895Z,27.10
2019-05-21T14:04:39.046Z,26.40
2019-05-21T14:10:44.903Z,34.43
2019-05-21T14:16:50.784Z,25.80
2019-05-21T14:22:56.623Z,26.20
2019-05-21T14:29:02.444Z,25.37
2019-05-21T14:35:08.671Z,26.07
2019-05-21T14:41:14.587Z,21.93
2019-05-21T14:47:20.567Z,23.60
2019-05-21T14:53:27.485Z,23.87
2019-05-21T14:59:33.520Z,23.53
2019-05-21T15:05:39.654Z,22.50
2019-05-21T15:11:45.477Z,24.23
2019-05-21T15:17:51.333Z,23.17
2019-05-21T15:23:57.588Z,23.57
2019-05-21T15:30:03.922Z,25.80
2019-05-21T15:36:09.945Z,25.37
2019-05-21T15:42:15.832Z,26.63
2019-05-21T15:48:26.039Z,26.37
2019-05-21T15:54:30.270Z,26.07
2019-05-21T16:00:36.150Z,26.23
2019-05-21T16:06:42.026Z,29.40
2019-05-21T16:12:47.949Z,27.30
2019-05-21T16:18:53.992Z,28.60
2019-05-21T16:24:59.851Z,26.37
2019-05-21T16:31:05.675Z,26.73
2019-05-21T16:37:12.063Z,26.70
2019-05-21T16:43:18.415Z,27.50
2019-05-21T16:49:25.624Z,26.10
2019-05-21T16:55:32.357Z,25.33
2019-05-21T17:01:38.139Z,25.60
2019-05-21T17:07:43.973Z,25.63
2019-05-21T17:13:50.098Z,24.70
2019-05-21T17:19:56.035Z,26.33
2019-05-21T17:26:02.356Z,25.70
2019-05-21T17:32:08.663Z,27.07
2019-05-21T17:38:16.428Z,28.07
2019-05-21T17:44:24.888Z,28.03
2019-05-21T17:50:29.833Z,29.97
2019-05-21T17:56:37.694Z,25.73
2019-05-21T18:09:02.346Z,27.60
2019-05-21T18:15:12.434Z,28.73
2019-05-21T18:21:18.682Z,29.73
2019-05-21T18:27:25.032Z,34.73
2019-05-21T18:33:30.783Z,36.13
2019-05-21T18:39:37.686Z,39.27
2019-05-21T18:45:44.068Z,39.33
2019-05-21T18:51:50.123Z,35.10
2019-05-21T18:57:56.319Z,34.57
2019-05-21T19:04:02.136Z,32.33
2019-05-21T19:10:08.674Z,32.33
2019-05-21T19:16:14.497Z,33.37
2019-05-21T19:22:20.582Z,37.40
2019-05-21T19:28:26.396Z,37.50
2019-05-21T19:34:32.242Z,35.50
2019-05-21T19:40:38.269Z,32.07
2019-05-21T19:46:44.219Z,31.17
2019-05-21T19:52:50.016Z,30.40
2019-05-21T19:58:55.953Z,31.90
2019-05-21T20:05:02.362Z,31.00
2019-05-21T20:11:09.366Z,28.90
2019-05-21T20:17:17.176Z,29.87
2019-05-21T20:23:24.862Z,37.10
2019-05-21T20:29:31.260Z,31.63
2019-05-21T20:35:38.309Z,30.80
2019-05-21T20:41:44.828Z,29.40
2019-05-21T20:47:52.350Z,30.37
2019-05-21T20:53:58.952Z,33.53
2019-05-21T21:00:05.718Z,32.37
2019-05-21T21:06:12.605Z,30.77
2019-05-21T21:12:19.409Z,33.03
2019-05-21T21:18:25.897Z,38.37
2019-05-21T21:24:31.836Z,36.13
2019-05-21T21:30:37.797Z,37.13
2019-05-21T21:36:44.122Z,38.40
2019-05-21T21:42:50.306Z,41.73
2019-05-21T21:48:56.751Z,43.57
2019-05-21T21:55:02.612Z,42.10
2019-05-21T22:01:46.577Z,45.03
2019-05-21T22:07:54.053Z,49.73
2019-05-21T22:14:00.813Z,49.77
2019-05-21T22:20:09.767Z,51.23
2019-05-21T22:26:15.762Z,58.93
2019-05-21T22:32:21.901Z,57.87
2019-05-21T22:38:28.441Z,51.97
2019-05-21T22:44:34.755Z,53.67
2019-05-21T22:50:40.686Z,51.13
2019-05-21T22:56:46.480Z,54.33
2019-05-21T23:02:52.862Z,46.87
2019-05-21T23:08:58.809Z,55.90
2019-05-21T23:15:04.929Z,57.57
2019-05-21T23:21:11.250Z,62.90
2019-05-21T23:27:17.722Z,61.80
2019-05-21T23:33:23.987Z,61.97
2019-05-21T23:39:31.445Z,62.67
2019-05-21T23:45:37.285Z,62.67
2019-05-21T23:51:43.565Z,73.57
2019-05-21T23:57:49.596Z,80.60
